map of PMV home
PMV - Airport
Location
City:  Porlamar, Isla Margarita, Nueva Esparta, Venezuela
Name:Del Caribe "General Santiago Mariņo" International Airport
ICAO:SVMG
IATA:PMV

Details
Type:Airport (Aerodrome, Airfield)
Use:Public/Civil, International (customs port of entry)
Latitude:10°54'47"N (10.912926)
Longitude:63°58'03"W (-63.967580)
Datum:other
Elevation:74 ft (23 m)
Variation:13.75°W (WMM2015 magnetic declination)
-0.07° annual change
Runways:2
Longest:10499 × 150 ft (3200 × 45.5 m), paved

Time
Time Zone:UTC-4
Local Time:

Weather
METAR:SVMG 291100Z 14005KT 9999 FEW010 SCT080 26/24 Q1009 NOSIG
TAF:SVMG 290400Z 2906/3006 10010KT 9999 FEW010 BKN080 TX34/17Z TN25/07Z
FM291300 09015KT 9000 +DZ BKN010
BECMG 2922/3002 FEW010 8000 TSRA BKN080

Related Locations
Nearby:
Farthest:LOP: 12281 mi / 19764 km
Praya [Lombok Intl], Lombok Island, NB, ID

Find:

   beyond  
but within

Other Information
Maps:
NOTAMs:
Links:
Sources:

  
flag of Venezuela   

Sectional Chart

Flight Planning
at skyvector.com

Satellite Image

Google Maps Satellite view

 

Copyright © 2004-2016 Karl L. Swartz. All rights reserved.
The Great Circle Mapper name and logo are trademarks of the Great Circle Mapper.
All other trademarks mentioned herein belong to their respective owners.
Please see credits for attibutions and further copyright information.

  Follow gcmap on Facebook Follow gcmap on Twitter Follow gcmap on Google+ GCmap on LinkedIn

hCard Microformat

Geo Microformat